sensor_id;sensor_type;location;lat;lon;timestamp;P1;durP1;ratioP1;P2;durP2;ratioP2
72791;SDS011;60907;53.268;8.764;2022-11-30T00:00:20;54.60;;;20.17;;
72791;SDS011;60907;53.268;8.764;2022-11-30T00:02:46;54.25;;;20.55;;
72791;SDS011;60907;53.268;8.764;2022-11-30T00:05:13;49.75;;;19.85;;
72791;SDS011;60907;53.268;8.764;2022-11-30T00:07:39;59.72;;;21.65;;
72791;SDS011;60907;53.268;8.764;2022-11-30T00:10:04;53.67;;;19.52;;
72791;SDS011;60907;53.268;8.764;2022-11-30T00:12:30;54.15;;;21.05;;
72791;SDS011;60907;53.268;8.764;2022-11-30T00:14:56;58.03;;;20.80;;
72791;SDS011;60907;53.268;8.764;2022-11-30T00:17:21;57.90;;;20.58;;
72791;SDS011;60907;53.268;8.764;2022-11-30T00:19:47;60.47;;;20.27;;
72791;SDS011;60907;53.268;8.764;2022-11-30T00:22:12;57.33;;;18.60;;
72791;SDS011;60907;53.268;8.764;2022-11-30T00:24:37;56.10;;;21.67;;
72791;SDS011;60907;53.268;8.764;2022-11-30T00:27:03;59.08;;;20.33;;
72791;SDS011;60907;53.268;8.764;2022-11-30T00:29:28;60.70;;;21.48;;
72791;SDS011;60907;53.268;8.764;2022-11-30T00:31:54;53.93;;;19.90;;
72791;SDS011;60907;53.268;8.764;2022-11-30T00:34:19;53.43;;;20.27;;
72791;SDS011;60907;53.268;8.764;2022-11-30T00:36:44;59.95;;;20.05;;
72791;SDS011;60907;53.268;8.764;2022-11-30T00:39:10;55.38;;;17.98;;
72791;SDS011;60907;53.268;8.764;2022-11-30T00:41:35;58.42;;;19.75;;
72791;SDS011;60907;53.268;8.764;2022-11-30T00:44:01;54.83;;;20.70;;
72791;SDS011;60907;53.268;8.764;2022-11-30T00:46:26;54.97;;;18.17;;
72791;SDS011;60907;53.268;8.764;2022-11-30T00:48:51;53.22;;;19.95;;
72791;SDS011;60907;53.268;8.764;2022-11-30T00:51:17;55.58;;;18.65;;
72791;SDS011;60907;53.268;8.764;2022-11-30T00:53:44;47.70;;;18.58;;
72791;SDS011;60907;53.268;8.764;2022-11-30T00:56:11;58.30;;;20.40;;
72791;SDS011;60907;53.268;8.764;2022-11-30T00:58:37;51.50;;;18.50;;
72791;SDS011;60907;53.268;8.764;2022-11-30T01:01:02;51.42;;;19.55;;
72791;SDS011;60907;53.268;8.764;2022-11-30T01:03:28;52.42;;;19.05;;
72791;SDS011;60907;53.268;8.764;2022-11-30T01:05:53;54.58;;;20.00;;
72791;SDS011;60907;53.268;8.764;2022-11-30T01:08:19;56.80;;;19.95;;
72791;SDS011;60907;53.268;8.764;2022-11-30T01:10:44;52.58;;;19.25;;
72791;SDS011;60907;53.268;8.764;2022-11-30T01:13:12;51.95;;;19.70;;
72791;SDS011;60907;53.268;8.764;2022-11-30T01:15:38;54.85;;;18.50;;
72791;SDS011;60907;53.268;8.764;2022-11-30T01:18:06;52.35;;;18.45;;
72791;SDS011;60907;53.268;8.764;2022-11-30T01:20:31;53.53;;;18.70;;
72791;SDS011;60907;53.268;8.764;2022-11-30T01:22:56;51.88;;;19.10;;
72791;SDS011;60907;53.268;8.764;2022-11-30T01:25:22;50.92;;;18.55;;
72791;SDS011;60907;53.268;8.764;2022-11-30T01:27:48;51.08;;;18.25;;
72791;SDS011;60907;53.268;8.764;2022-11-30T01:30:14;50.38;;;18.58;;
72791;SDS011;60907;53.268;8.764;2022-11-30T01:32:39;55.80;;;17.92;;
72791;SDS011;60907;53.268;8.764;2022-11-30T01:35:05;47.33;;;16.98;;
72791;SDS011;60907;53.268;8.764;2022-11-30T01:37:30;52.25;;;18.25;;
72791;SDS011;60907;53.268;8.764;2022-11-30T01:39:56;46.85;;;18.23;;
72791;SDS011;60907;53.268;8.764;2022-11-30T01:42:21;53.13;;;18.77;;
72791;SDS011;60907;53.268;8.764;2022-11-30T01:47:12;54.47;;;17.80;;
72791;SDS011;60907;53.268;8.764;2022-11-30T01:49:38;53.97;;;18.60;;
72791;SDS011;60907;53.268;8.764;2022-11-30T01:52:11;50.80;;;18.63;;
72791;SDS011;60907;53.268;8.764;2022-11-30T01:55:12;56.35;;;18.02;;
72791;SDS011;60907;53.268;8.764;2022-11-30T01:57:39;55.22;;;18.67;;
72791;SDS011;60907;53.268;8.764;2022-11-30T02:00:09;48.88;;;18.27;;
72791;SDS011;60907;53.268;8.764;2022-11-30T02:02:46;53.40;;;17.90;;
72791;SDS011;60907;53.268;8.764;2022-11-30T02:05:16;50.90;;;19.42;;
72791;SDS011;60907;53.268;8.764;2022-11-30T02:07:42;52.95;;;18.05;;
72791;SDS011;60907;53.268;8.764;2022-11-30T02:10:15;50.28;;;18.38;;
72791;SDS011;60907;53.268;8.764;2022-11-30T02:15:40;56.75;;;19.05;;
72791;SDS011;60907;53.268;8.764;2022-11-30T02:18:31;57.53;;;19.30;;
72791;SDS011;60907;53.268;8.764;2022-11-30T02:21:10;62.30;;;19.05;;
72791;SDS011;60907;53.268;8.764;2022-11-30T02:32:22;62.53;;;20.30;;
72791;SDS011;60907;53.268;8.764;2022-11-30T02:34:51;63.20;;;18.98;;
72791;SDS011;60907;53.268;8.764;2022-11-30T02:37:18;65.57;;;20.55;;
72791;SDS011;60907;53.268;8.764;2022-11-30T02:39:44;64.90;;;21.35;;
72791;SDS011;60907;53.268;8.764;2022-11-30T02:42:10;59.47;;;20.10;;
72791;SDS011;60907;53.268;8.764;2022-11-30T02:44:37;59.50;;;20.05;;
72791;SDS011;60907;53.268;8.764;2022-11-30T02:47:10;61.42;;;20.60;;
72791;SDS011;60907;53.268;8.764;2022-11-30T02:49:42;62.00;;;20.25;;
72791;SDS011;60907;53.268;8.764;2022-11-30T02:52:13;61.88;;;19.55;;
72791;SDS011;60907;53.268;8.764;2022-11-30T02:54:39;62.05;;;20.58;;
72791;SDS011;60907;53.268;8.764;2022-11-30T02:57:04;54.70;;;18.77;;
72791;SDS011;60907;53.268;8.764;2022-11-30T02:59:30;60.38;;;20.60;;
72791;SDS011;60907;53.268;8.764;2022-11-30T03:01:55;62.45;;;19.80;;
72791;SDS011;60907;53.268;8.764;2022-11-30T03:04:21;59.80;;;19.80;;
72791;SDS011;60907;53.268;8.764;2022-11-30T03:06:46;63.90;;;20.88;;
72791;SDS011;60907;53.268;8.764;2022-11-30T03:09:12;65.80;;;21.13;;
72791;SDS011;60907;53.268;8.764;2022-11-30T03:11:38;60.28;;;20.52;;
72791;SDS011;60907;53.268;8.764;2022-11-30T03:14:04;64.93;;;21.90;;
72791;SDS011;60907;53.268;8.764;2022-11-30T03:16:29;68.55;;;21.55;;
72791;SDS011;60907;53.268;8.764;2022-11-30T03:18:56;67.13;;;20.80;;
72791;SDS011;60907;53.268;8.764;2022-11-30T03:21:21;67.82;;;22.20;;
72791;SDS011;60907;53.268;8.764;2022-11-30T03:23:47;66.17;;;22.00;;
72791;SDS011;60907;53.268;8.764;2022-11-30T03:26:12;71.50;;;23.17;;
72791;SDS011;60907;53.268;8.764;2022-11-30T03:28:38;69.53;;;21.03;;
72791;SDS011;60907;53.268;8.764;2022-11-30T03:31:04;66.57;;;22.92;;
72791;SDS011;60907;53.268;8.764;2022-11-30T03:33:29;70.25;;;22.10;;
72791;SDS011;60907;53.268;8.764;2022-11-30T03:36:01;71.75;;;22.05;;
72791;SDS011;60907;53.268;8.764;2022-11-30T03:38:31;74.40;;;21.23;;
72791;SDS011;60907;53.268;8.764;2022-11-30T03:41:07;79.30;;;22.63;;
72791;SDS011;60907;53.268;8.764;2022-11-30T03:43:35;78.13;;;24.45;;
72791;SDS011;60907;53.268;8.764;2022-11-30T03:46:01;77.47;;;23.38;;
72791;SDS011;60907;53.268;8.764;2022-11-30T03:48:27;82.07;;;23.05;;
72791;SDS011;60907;53.268;8.764;2022-11-30T03:50:52;75.82;;;23.23;;
72791;SDS011;60907;53.268;8.764;2022-11-30T03:53:18;77.13;;;22.08;;
72791;SDS011;60907;53.268;8.764;2022-11-30T03:55:45;68.47;;;21.33;;
72791;SDS011;60907;53.268;8.764;2022-11-30T03:58:11;70.13;;;20.83;;
72791;SDS011;60907;53.268;8.764;2022-11-30T04:00:37;70.95;;;22.60;;
72791;SDS011;60907;53.268;8.764;2022-11-30T04:03:03;72.30;;;20.25;;
72791;SDS011;60907;53.268;8.764;2022-11-30T04:05:28;73.28;;;22.42;;
72791;SDS011;60907;53.268;8.764;2022-11-30T04:07:53;79.78;;;22.73;;
72791;SDS011;60907;53.268;8.764;2022-11-30T04:10:19;71.30;;;23.58;;
72791;SDS011;60907;53.268;8.764;2022-11-30T04:12:44;66.13;;;22.23;;
72791;SDS011;60907;53.268;8.764;2022-11-30T04:15:10;75.20;;;21.77;;
72791;SDS011;60907;53.268;8.764;2022-11-30T04:17:35;68.07;;;20.60;;
72791;SDS011;60907;53.268;8.764;2022-11-30T04:20:01;81.68;;;24.77;;
72791;SDS011;60907;53.268;8.764;2022-11-30T04:22:27;66.72;;;21.88;;
72791;SDS011;60907;53.268;8.764;2022-11-30T04:24:52;71.65;;;22.58;;
72791;SDS011;60907;53.268;8.764;2022-11-30T04:27:18;68.55;;;22.17;;
72791;SDS011;60907;53.268;8.764;2022-11-30T04:29:43;70.75;;;22.13;;
72791;SDS011;60907;53.268;8.764;2022-11-30T04:32:09;67.10;;;22.38;;
72791;SDS011;60907;53.268;8.764;2022-11-30T04:34:34;67.78;;;21.23;;
72791;SDS011;60907;53.268;8.764;2022-11-30T04:36:59;60.45;;;21.05;;
72791;SDS011;60907;53.268;8.764;2022-11-30T04:39:25;70.22;;;19.85;;
72791;SDS011;60907;53.268;8.764;2022-11-30T04:41:50;66.20;;;19.73;;
72791;SDS011;60907;53.268;8.764;2022-11-30T04:44:16;72.20;;;21.63;;
72791;SDS011;60907;53.268;8.764;2022-11-30T04:46:41;70.00;;;22.05;;
72791;SDS011;60907;53.268;8.764;2022-11-30T04:49:07;69.65;;;21.35;;
72791;SDS011;60907;53.268;8.764;2022-11-30T04:51:32;68.28;;;22.05;;
72791;SDS011;60907;53.268;8.764;2022-11-30T04:53:58;66.85;;;21.08;;
72791;SDS011;60907;53.268;8.764;2022-11-30T04:56:23;70.97;;;21.88;;
72791;SDS011;60907;53.268;8.764;2022-11-30T04:58:48;69.78;;;21.95;;
72791;SDS011;60907;53.268;8.764;2022-11-30T05:01:14;69.15;;;22.10;;
72791;SDS011;60907;53.268;8.764;2022-11-30T05:03:39;66.20;;;22.35;;
72791;SDS011;60907;53.268;8.764;2022-11-30T05:06:05;68.28;;;20.90;;
72791;SDS011;60907;53.268;8.764;2022-11-30T05:08:30;69.68;;;22.42;;
72791;SDS011;60907;53.268;8.764;2022-11-30T05:10:56;73.32;;;22.80;;
72791;SDS011;60907;53.268;8.764;2022-11-30T05:13:22;68.57;;;22.10;;
72791;SDS011;60907;53.268;8.764;2022-11-30T05:15:48;83.55;;;23.23;;
72791;SDS011;60907;53.268;8.764;2022-11-30T05:18:13;71.32;;;21.42;;
72791;SDS011;60907;53.268;8.764;2022-11-30T05:20:39;69.13;;;21.30;;
72791;SDS011;60907;53.268;8.764;2022-11-30T05:23:05;75.07;;;23.27;;
72791;SDS011;60907;53.268;8.764;2022-11-30T05:25:30;68.18;;;22.90;;
72791;SDS011;60907;53.268;8.764;2022-11-30T05:27:56;71.30;;;23.15;;
72791;SDS011;60907;53.268;8.764;2022-11-30T05:30:21;71.10;;;21.33;;
72791;SDS011;60907;53.268;8.764;2022-11-30T05:32:47;67.78;;;21.73;;
72791;SDS011;60907;53.268;8.764;2022-11-30T05:35:12;71.70;;;21.52;;
72791;SDS011;60907;53.268;8.764;2022-11-30T05:37:38;68.68;;;21.52;;
72791;SDS011;60907;53.268;8.764;2022-11-30T05:40:03;78.60;;;21.30;;
72791;SDS011;60907;53.268;8.764;2022-11-30T05:42:29;72.78;;;19.63;;
72791;SDS011;60907;53.268;8.764;2022-11-30T05:44:55;66.97;;;21.65;;
72791;SDS011;60907;53.268;8.764;2022-11-30T05:47:21;74.90;;;20.92;;
72791;SDS011;60907;53.268;8.764;2022-11-30T05:49:46;63.95;;;20.85;;
72791;SDS011;60907;53.268;8.764;2022-11-30T05:52:11;70.57;;;22.20;;
72791;SDS011;60907;53.268;8.764;2022-11-30T05:54:37;75.80;;;22.80;;
72791;SDS011;60907;53.268;8.764;2022-11-30T05:57:02;71.80;;;22.40;;
72791;SDS011;60907;53.268;8.764;2022-11-30T05:59:29;61.10;;;18.58;;
72791;SDS011;60907;53.268;8.764;2022-11-30T06:01:54;62.70;;;21.00;;
72791;SDS011;60907;53.268;8.764;2022-11-30T06:04:20;57.67;;;19.75;;
72791;SDS011;60907;53.268;8.764;2022-11-30T06:06:46;68.57;;;20.20;;
72791;SDS011;60907;53.268;8.764;2022-11-30T06:09:13;65.70;;;19.55;;
72791;SDS011;60907;53.268;8.764;2022-11-30T06:11:39;63.53;;;21.15;;
72791;SDS011;60907;53.268;8.764;2022-11-30T06:14:04;81.10;;;22.08;;
72791;SDS011;60907;53.268;8.764;2022-11-30T06:16:30;79.20;;;22.23;;
72791;SDS011;60907;53.268;8.764;2022-11-30T06:18:55;75.93;;;23.02;;
72791;SDS011;60907;53.268;8.764;2022-11-30T06:21:20;70.40;;;20.55;;
72791;SDS011;60907;53.268;8.764;2022-11-30T06:23:46;68.20;;;20.48;;
72791;SDS011;60907;53.268;8.764;2022-11-30T06:26:11;65.95;;;20.63;;
72791;SDS011;60907;53.268;8.764;2022-11-30T06:28:37;70.80;;;20.80;;
72791;SDS011;60907;53.268;8.764;2022-11-30T06:31:04;66.53;;;21.02;;
72791;SDS011;60907;53.268;8.764;2022-11-30T06:33:30;71.72;;;21.70;;
72791;SDS011;60907;53.268;8.764;2022-11-30T06:35:56;68.53;;;21.63;;
72791;SDS011;60907;53.268;8.764;2022-11-30T06:38:22;61.90;;;20.67;;
72791;SDS011;60907;53.268;8.764;2022-11-30T06:40:48;71.75;;;21.77;;
72791;SDS011;60907;53.268;8.764;2022-11-30T06:43:14;68.32;;;21.67;;
72791;SDS011;60907;53.268;8.764;2022-11-30T06:45:41;69.88;;;21.73;;
72791;SDS011;60907;53.268;8.764;2022-11-30T06:48:08;62.97;;;21.02;;
72791;SDS011;60907;53.268;8.764;2022-11-30T06:50:33;66.50;;;20.70;;
72791;SDS011;60907;53.268;8.764;2022-11-30T06:52:59;78.35;;;21.38;;
72791;SDS011;60907;53.268;8.764;2022-11-30T06:55:24;63.75;;;21.40;;
72791;SDS011;60907;53.268;8.764;2022-11-30T06:57:50;65.15;;;20.67;;
72791;SDS011;60907;53.268;8.764;2022-11-30T07:00:15;65.63;;;22.08;;
72791;SDS011;60907;53.268;8.764;2022-11-30T07:02:41;63.60;;;20.67;;
72791;SDS011;60907;53.268;8.764;2022-11-30T07:05:07;73.30;;;22.00;;
72791;SDS011;60907;53.268;8.764;2022-11-30T07:07:33;63.53;;;19.88;;
72791;SDS011;60907;53.268;8.764;2022-11-30T07:09:58;64.53;;;20.38;;
72791;SDS011;60907;53.268;8.764;2022-11-30T07:12:24;64.05;;;20.67;;
72791;SDS011;60907;53.268;8.764;2022-11-30T07:14:50;65.95;;;22.13;;
72791;SDS011;60907;53.268;8.764;2022-11-30T07:17:17;61.50;;;20.20;;
72791;SDS011;60907;53.268;8.764;2022-11-30T07:19:43;60.22;;;21.55;;
72791;SDS011;60907;53.268;8.764;2022-11-30T07:22:11;66.32;;;22.40;;
72791;SDS011;60907;53.268;8.764;2022-11-30T07:24:37;68.53;;;22.92;;
72791;SDS011;60907;53.268;8.764;2022-11-30T07:27:20;74.13;;;22.75;;
72791;SDS011;60907;53.268;8.764;2022-11-30T07:29:46;64.45;;;20.25;;
72791;SDS011;60907;53.268;8.764;2022-11-30T07:32:13;64.05;;;22.85;;
72791;SDS011;60907;53.268;8.764;2022-11-30T07:34:38;65.13;;;22.42;;
72791;SDS011;60907;53.268;8.764;2022-11-30T07:37:04;66.75;;;22.60;;
72791;SDS011;60907;53.268;8.764;2022-11-30T07:39:29;64.38;;;21.60;;
72791;SDS011;60907;53.268;8.764;2022-11-30T07:41:55;68.65;;;22.25;;
72791;SDS011;60907;53.268;8.764;2022-11-30T07:44:20;66.95;;;21.85;;
72791;SDS011;60907;53.268;8.764;2022-11-30T07:46:46;74.15;;;22.77;;
72791;SDS011;60907;53.268;8.764;2022-11-30T07:49:11;65.45;;;22.20;;
72791;SDS011;60907;53.268;8.764;2022-11-30T07:51:36;68.95;;;23.30;;
72791;SDS011;60907;53.268;8.764;2022-11-30T07:54:02;69.88;;;21.20;;
72791;SDS011;60907;53.268;8.764;2022-11-30T07:56:28;76.00;;;22.63;;
72791;SDS011;60907;53.268;8.764;2022-11-30T07:58:54;77.03;;;23.25;;
72791;SDS011;60907;53.268;8.764;2022-11-30T08:01:24;64.35;;;22.67;;
72791;SDS011;60907;53.268;8.764;2022-11-30T08:03:51;77.43;;;22.73;;
72791;SDS011;60907;53.268;8.764;2022-11-30T08:06:18;66.78;;;22.45;;
72791;SDS011;60907;53.268;8.764;2022-11-30T08:08:45;70.32;;;21.77;;
72791;SDS011;60907;53.268;8.764;2022-11-30T08:11:12;74.57;;;23.42;;
72791;SDS011;60907;53.268;8.764;2022-11-30T08:13:39;72.00;;;23.83;;
72791;SDS011;60907;53.268;8.764;2022-11-30T08:16:06;70.38;;;21.08;;
72791;SDS011;60907;53.268;8.764;2022-11-30T08:18:36;73.00;;;22.98;;
72791;SDS011;60907;53.268;8.764;2022-11-30T08:21:03;70.85;;;23.98;;
72791;SDS011;60907;53.268;8.764;2022-11-30T08:23:30;73.28;;;23.55;;
72791;SDS011;60907;53.268;8.764;2022-11-30T08:26:01;72.90;;;23.85;;
72791;SDS011;60907;53.268;8.764;2022-11-30T08:28:30;70.55;;;22.65;;
72791;SDS011;60907;53.268;8.764;2022-11-30T08:31:04;70.22;;;19.75;;
72791;SDS011;60907;53.268;8.764;2022-11-30T08:33:31;65.63;;;21.42;;
72791;SDS011;60907;53.268;8.764;2022-11-30T08:36:04;64.50;;;22.25;;
72791;SDS011;60907;53.268;8.764;2022-11-30T08:38:33;72.15;;;23.52;;
72791;SDS011;60907;53.268;8.764;2022-11-30T08:40:59;80.72;;;23.98;;
72791;SDS011;60907;53.268;8.764;2022-11-30T08:43:26;73.00;;;22.67;;
72791;SDS011;60907;53.268;8.764;2022-11-30T08:45:51;77.43;;;24.00;;
72791;SDS011;60907;53.268;8.764;2022-11-30T08:48:18;77.28;;;23.35;;
72791;SDS011;60907;53.268;8.764;2022-11-30T08:50:43;76.35;;;23.17;;
72791;SDS011;60907;53.268;8.764;2022-11-30T08:53:08;75.47;;;22.52;;
72791;SDS011;60907;53.268;8.764;2022-11-30T08:55:34;74.50;;;23.33;;
72791;SDS011;60907;53.268;8.764;2022-11-30T08:58:00;75.38;;;24.55;;
72791;SDS011;60907;53.268;8.764;2022-11-30T09:00:25;71.25;;;23.38;;
72791;SDS011;60907;53.268;8.764;2022-11-30T09:02:51;81.20;;;24.02;;
72791;SDS011;60907;53.268;8.764;2022-11-30T09:05:16;81.70;;;25.38;;
72791;SDS011;60907;53.268;8.764;2022-11-30T09:07:42;78.03;;;23.73;;
72791;SDS011;60907;53.268;8.764;2022-11-30T09:10:07;77.10;;;21.58;;
72791;SDS011;60907;53.268;8.764;2022-11-30T09:12:34;79.18;;;24.73;;
72791;SDS011;60907;53.268;8.764;2022-11-30T09:17:26;71.28;;;24.20;;
72791;SDS011;60907;53.268;8.764;2022-11-30T09:19:51;77.50;;;23.58;;
72791;SDS011;60907;53.268;8.764;2022-11-30T09:22:18;69.22;;;20.38;;
72791;SDS011;60907;53.268;8.764;2022-11-30T09:24:44;74.30;;;22.05;;
72791;SDS011;60907;53.268;8.764;2022-11-30T09:27:09;74.20;;;25.23;;
72791;SDS011;60907;53.268;8.764;2022-11-30T09:29:35;79.15;;;23.10;;
72791;SDS011;60907;53.268;8.764;2022-11-30T09:32:00;72.63;;;22.42;;
72791;SDS011;60907;53.268;8.764;2022-11-30T09:34:26;84.53;;;22.85;;
72791;SDS011;60907;53.268;8.764;2022-11-30T09:36:51;68.72;;;21.40;;
72791;SDS011;60907;53.268;8.764;2022-11-30T09:39:17;84.78;;;24.83;;
72791;SDS011;60907;53.268;8.764;2022-11-30T09:49:55;67.25;;;22.05;;
72791;SDS011;60907;53.268;8.764;2022-11-30T09:52:31;75.60;;;22.08;;
72791;SDS011;60907;53.268;8.764;2022-11-30T09:55:04;80.13;;;22.13;;
72791;SDS011;60907;53.268;8.764;2022-11-30T09:57:33;73.78;;;23.15;;
72791;SDS011;60907;53.268;8.764;2022-11-30T10:00:05;81.90;;;23.40;;
72791;SDS011;60907;53.268;8.764;2022-11-30T10:02:39;78.90;;;24.40;;
72791;SDS011;60907;53.268;8.764;2022-11-30T10:05:11;70.20;;;21.65;;
72791;SDS011;60907;53.268;8.764;2022-11-30T10:07:51;87.32;;;23.55;;
72791;SDS011;60907;53.268;8.764;2022-11-30T10:10:41;72.97;;;24.42;;
72791;SDS011;60907;53.268;8.764;2022-11-30T10:13:35;77.97;;;24.77;;
72791;SDS011;60907;53.268;8.764;2022-11-30T10:16:10;80.05;;;22.08;;
72791;SDS011;60907;53.268;8.764;2022-11-30T10:18:49;83.00;;;23.67;;
72791;SDS011;60907;53.268;8.764;2022-11-30T10:27:39;70.30;;;20.98;;
72791;SDS011;60907;53.268;8.764;2022-11-30T10:30:16;63.38;;;20.60;;
72791;SDS011;60907;53.268;8.764;2022-11-30T10:32:46;75.55;;;21.92;;
72791;SDS011;60907;53.268;8.764;2022-11-30T10:37:53;68.72;;;21.90;;
72791;SDS011;60907;53.268;8.764;2022-11-30T10:43:16;71.05;;;21.58;;
72791;SDS011;60907;53.268;8.764;2022-11-30T10:45:47;73.78;;;23.00;;
72791;SDS011;60907;53.268;8.764;2022-11-30T10:48:22;71.13;;;22.35;;
72791;SDS011;60907;53.268;8.764;2022-11-30T10:51:00;75.65;;;22.00;;
72791;SDS011;60907;53.268;8.764;2022-11-30T10:53:27;75.18;;;21.95;;
72791;SDS011;60907;53.268;8.764;2022-11-30T10:55:57;70.05;;;21.25;;
72791;SDS011;60907;53.268;8.764;2022-11-30T10:58:33;72.82;;;20.92;;
72791;SDS011;60907;53.268;8.764;2022-11-30T11:01:07;77.82;;;22.05;;
72791;SDS011;60907;53.268;8.764;2022-11-30T11:03:34;74.43;;;21.23;;
72791;SDS011;60907;53.268;8.764;2022-11-30T11:06:10;72.63;;;21.40;;
72791;SDS011;60907;53.268;8.764;2022-11-30T11:08:42;72.68;;;21.52;;
72791;SDS011;60907;53.268;8.764;2022-11-30T11:14:08;63.50;;;20.15;;
72791;SDS011;60907;53.268;8.764;2022-11-30T11:19:22;73.50;;;22.15;;
72791;SDS011;60907;53.268;8.764;2022-11-30T11:21:49;62.28;;;19.88;;
72791;SDS011;60907;53.268;8.764;2022-11-30T11:24:15;60.90;;;20.40;;
72791;SDS011;60907;53.268;8.764;2022-11-30T11:26:50;73.38;;;21.65;;
72791;SDS011;60907;53.268;8.764;2022-11-30T11:29:23;63.97;;;21.25;;
72791;SDS011;60907;53.268;8.764;2022-11-30T11:34:49;58.78;;;19.40;;
72791;SDS011;60907;53.268;8.764;2022-11-30T11:39:56;61.90;;;20.10;;
72791;SDS011;60907;53.268;8.764;2022-11-30T11:42:30;65.53;;;20.88;;
72791;SDS011;60907;53.268;8.764;2022-11-30T11:44:59;65.10;;;20.23;;
72791;SDS011;60907;53.268;8.764;2022-11-30T11:47:32;65.90;;;21.13;;
72791;SDS011;60907;53.268;8.764;2022-11-30T11:50:03;56.40;;;19.73;;
72791;SDS011;60907;53.268;8.764;2022-11-30T11:52:30;54.13;;;19.05;;
72791;SDS011;60907;53.268;8.764;2022-11-30T11:54:57;61.50;;;19.65;;
72791;SDS011;60907;53.268;8.764;2022-11-30T11:57:41;51.97;;;19.77;;
72791;SDS011;60907;53.268;8.764;2022-11-30T12:00:20;54.10;;;19.35;;
72791;SDS011;60907;53.268;8.764;2022-11-30T12:05:52;50.55;;;16.45;;
72791;SDS011;60907;53.268;8.764;2022-11-30T12:11:00;51.00;;;18.95;;
72791;SDS011;60907;53.268;8.764;2022-11-30T12:13:30;53.60;;;19.52;;
72791;SDS011;60907;53.268;8.764;2022-11-30T12:18:56;63.35;;;22.33;;
72791;SDS011;60907;53.268;8.764;2022-11-30T12:24:14;63.20;;;21.58;;
72791;SDS011;60907;53.268;8.764;2022-11-30T12:26:44;70.30;;;20.85;;
72791;SDS011;60907;53.268;8.764;2022-11-30T12:29:17;76.32;;;22.45;;
72791;SDS011;60907;53.268;8.764;2022-11-30T12:37:37;72.28;;;21.75;;
72791;SDS011;60907;53.268;8.764;2022-11-30T12:43:13;65.38;;;20.38;;
72791;SDS011;60907;53.268;8.764;2022-11-30T12:45:54;69.63;;;23.40;;
72791;SDS011;60907;53.268;8.764;2022-11-30T12:54:26;62.67;;;20.05;;
72791;SDS011;60907;53.268;8.764;2022-11-30T12:57:17;50.90;;;18.90;;
72791;SDS011;60907;53.268;8.764;2022-11-30T13:05:13;66.10;;;21.38;;
72791;SDS011;60907;53.268;8.764;2022-11-30T13:08:02;56.60;;;19.67;;
72791;SDS011;60907;53.268;8.764;2022-11-30T13:10:39;61.13;;;22.67;;
72791;SDS011;60907;53.268;8.764;2022-11-30T13:13:15;72.47;;;24.75;;
72791;SDS011;60907;53.268;8.764;2022-11-30T13:15:44;75.00;;;25.52;;
72791;SDS011;60907;53.268;8.764;2022-11-30T13:18:21;119.35;;;37.67;;
72791;SDS011;60907;53.268;8.764;2022-11-30T13:20:51;88.13;;;31.30;;
72791;SDS011;60907;53.268;8.764;2022-11-30T13:25:59;83.18;;;28.60;;
72791;SDS011;60907;53.268;8.764;2022-11-30T13:33:48;55.77;;;23.83;;
72791;SDS011;60907;53.268;8.764;2022-11-30T13:41:50;54.40;;;21.23;;
72791;SDS011;60907;53.268;8.764;2022-11-30T13:46:57;50.63;;;20.77;;
72791;SDS011;60907;53.268;8.764;2022-11-30T13:49:27;58.60;;;20.75;;
72791;SDS011;60907;53.268;8.764;2022-11-30T13:57:02;50.33;;;19.60;;
72791;SDS011;60907;53.268;8.764;2022-11-30T13:59:47;53.90;;;20.90;;
72791;SDS011;60907;53.268;8.764;2022-11-30T14:13:02;58.55;;;19.63;;
72791;SDS011;60907;53.268;8.764;2022-11-30T14:23:20;58.50;;;21.35;;
72791;SDS011;60907;53.268;8.764;2022-11-30T14:28:19;79.32;;;24.38;;
72791;SDS011;60907;53.268;8.764;2022-11-30T14:30:47;88.82;;;26.40;;
72791;SDS011;60907;53.268;8.764;2022-11-30T14:33:23;91.90;;;26.45;;
72791;SDS011;60907;53.268;8.764;2022-11-30T14:35:53;85.50;;;26.13;;
72791;SDS011;60907;53.268;8.764;2022-11-30T14:38:29;75.47;;;24.23;;
72791;SDS011;60907;53.268;8.764;2022-11-30T14:40:55;85.45;;;26.27;;
72791;SDS011;60907;53.268;8.764;2022-11-30T14:43:21;80.70;;;26.30;;
72791;SDS011;60907;53.268;8.764;2022-11-30T14:45:57;83.55;;;25.67;;
72791;SDS011;60907;53.268;8.764;2022-11-30T14:48:27;77.53;;;24.42;;
72791;SDS011;60907;53.268;8.764;2022-11-30T14:50:59;73.40;;;23.38;;
72791;SDS011;60907;53.268;8.764;2022-11-30T14:53:46;77.28;;;24.58;;
72791;SDS011;60907;53.268;8.764;2022-11-30T14:56:24;78.68;;;26.30;;
72791;SDS011;60907;53.268;8.764;2022-11-30T14:59:17;80.38;;;23.88;;
72791;SDS011;60907;53.268;8.764;2022-11-30T15:01:57;87.22;;;26.15;;
72791;SDS011;60907;53.268;8.764;2022-11-30T15:04:24;80.93;;;26.48;;
72791;SDS011;60907;53.268;8.764;2022-11-30T15:06:51;74.57;;;24.10;;
72791;SDS011;60907;53.268;8.764;2022-11-30T15:09:18;70.70;;;24.52;;
72791;SDS011;60907;53.268;8.764;2022-11-30T15:11:45;81.88;;;26.73;;
72791;SDS011;60907;53.268;8.764;2022-11-30T15:14:13;82.60;;;25.45;;
72791;SDS011;60907;53.268;8.764;2022-11-30T15:16:46;83.07;;;25.08;;
72791;SDS011;60907;53.268;8.764;2022-11-30T15:19:17;81.28;;;25.23;;
72791;SDS011;60907;53.268;8.764;2022-11-30T15:21:44;76.60;;;25.30;;
72791;SDS011;60907;53.268;8.764;2022-11-30T15:24:10;82.43;;;24.27;;
72791;SDS011;60907;53.268;8.764;2022-11-30T15:26:38;78.93;;;24.27;;
72791;SDS011;60907;53.268;8.764;2022-11-30T15:29:33;76.22;;;26.70;;
72791;SDS011;60907;53.268;8.764;2022-11-30T15:32:01;63.88;;;22.85;;
72791;SDS011;60907;53.268;8.764;2022-11-30T15:34:35;73.28;;;23.83;;
72791;SDS011;60907;53.268;8.764;2022-11-30T15:37:03;73.70;;;23.98;;
72791;SDS011;60907;53.268;8.764;2022-11-30T15:39:29;76.50;;;23.40;;
72791;SDS011;60907;53.268;8.764;2022-11-30T15:41:56;73.43;;;24.40;;
72791;SDS011;60907;53.268;8.764;2022-11-30T15:44:44;67.63;;;23.90;;
72791;SDS011;60907;53.268;8.764;2022-11-30T15:47:30;70.35;;;22.40;;
72791;SDS011;60907;53.268;8.764;2022-11-30T15:49:59;73.72;;;22.73;;
72791;SDS011;60907;53.268;8.764;2022-11-30T15:52:28;66.05;;;21.00;;
72791;SDS011;60907;53.268;8.764;2022-11-30T15:54:58;72.30;;;23.15;;
72791;SDS011;60907;53.268;8.764;2022-11-30T15:57:54;73.78;;;23.25;;
72791;SDS011;60907;53.268;8.764;2022-11-30T16:00:22;74.93;;;24.75;;
72791;SDS011;60907;53.268;8.764;2022-11-30T16:02:48;79.30;;;26.02;;
72791;SDS011;60907;53.268;8.764;2022-11-30T16:07:57;66.43;;;23.92;;
72791;SDS011;60907;53.268;8.764;2022-11-30T16:12:55;71.10;;;22.75;;
72791;SDS011;60907;53.268;8.764;2022-11-30T16:17:48;61.22;;;20.40;;
72791;SDS011;60907;53.268;8.764;2022-11-30T16:20:14;60.05;;;21.58;;
72791;SDS011;60907;53.268;8.764;2022-11-30T16:22:41;72.50;;;21.10;;
72791;SDS011;60907;53.268;8.764;2022-11-30T16:25:40;74.72;;;22.67;;
72791;SDS011;60907;53.268;8.764;2022-11-30T16:30:24;56.23;;;19.93;;
72791;SDS011;60907;53.268;8.764;2022-11-30T16:32:49;63.80;;;21.15;;
72791;SDS011;60907;53.268;8.764;2022-11-30T16:35:34;65.68;;;21.00;;
72791;SDS011;60907;53.268;8.764;2022-11-30T16:38:00;64.15;;;20.52;;
72791;SDS011;60907;53.268;8.764;2022-11-30T16:40:26;70.35;;;23.20;;